createdAt,value
2019-02-19T00:00:18.756Z,0.00
2019-02-19T00:01:18.744Z,0.00
2019-02-19T00:02:18.756Z,0.00
2019-02-19T00:03:18.744Z,0.00
2019-02-19T00:04:18.723Z,0.00
2019-02-19T00:05:18.706Z,0.00
2019-02-19T00:06:18.689Z,0.00
2019-02-19T00:07:18.716Z,0.00
2019-02-19T00:08:18.674Z,0.00
2019-02-19T00:09:18.669Z,0.00
2019-02-19T00:10:18.650Z,0.00
2019-02-19T00:11:18.642Z,0.00
2019-02-19T00:12:18.654Z,0.00
2019-02-19T00:13:18.617Z,0.00
2019-02-19T00:14:18.603Z,0.00
2019-02-19T00:15:18.600Z,0.00
2019-02-19T00:16:18.591Z,0.00
2019-02-19T00:17:18.601Z,0.00
2019-02-19T00:18:18.567Z,0.00
2019-02-19T00:19:18.556Z,0.00
2019-02-19T00:20:18.550Z,0.00
2019-02-19T00:21:18.545Z,0.00
2019-02-19T00:22:18.557Z,0.00
2019-02-19T00:23:18.512Z,0.00
2019-02-19T00:24:18.505Z,0.00
2019-02-19T00:25:18.490Z,0.00
2019-02-19T00:26:18.481Z,0.00
2019-02-19T00:27:18.497Z,0.00
2019-02-19T00:28:18.457Z,0.00
2019-02-19T00:29:18.445Z,0.00
2019-02-19T00:30:18.442Z,0.00
2019-02-19T00:31:18.440Z,0.00
2019-02-19T00:32:18.465Z,0.00
2019-02-19T00:33:18.405Z,0.00
2019-02-19T00:34:18.399Z,0.00
2019-02-19T00:35:18.395Z,0.00
2019-02-19T00:36:18.380Z,0.00
2019-02-19T00:37:18.364Z,0.00
2019-02-19T00:38:18.376Z,0.00
2019-02-19T00:39:18.356Z,0.00
2019-02-19T00:40:18.333Z,0.00
2019-02-19T00:41:18.325Z,0.00
2019-02-19T00:42:18.307Z,0.00
2019-02-19T00:43:18.328Z,0.00
2019-02-19T00:44:18.292Z,0.00
2019-02-19T00:45:18.276Z,0.00
2019-02-19T00:46:18.272Z,0.00
2019-02-19T00:47:18.263Z,0.00
2019-02-19T00:48:18.278Z,0.00
2019-02-19T00:49:18.237Z,0.00
2019-02-19T00:50:18.228Z,0.00
2019-02-19T00:51:18.215Z,0.00
2019-02-19T00:52:18.216Z,0.00
2019-02-19T00:53:18.262Z,0.00
2019-02-19T00:54:18.184Z,0.00
2019-02-19T00:55:18.181Z,0.00
2019-02-19T00:56:18.169Z,0.00
2019-02-19T00:57:18.158Z,0.00
2019-02-19T00:58:18.168Z,0.00
2019-02-19T00:59:18.134Z,0.00
2019-02-19T01:00:18.120Z,0.00
2019-02-19T01:01:18.109Z,0.00
2019-02-19T01:02:18.102Z,0.00
2019-02-19T01:03:18.115Z,0.00
2019-02-19T01:04:18.085Z,0.00
2019-02-19T01:05:18.068Z,0.00
2019-02-19T01:06:18.056Z,0.00
2019-02-19T01:07:18.052Z,0.00
2019-02-19T01:08:18.059Z,0.00
2019-02-19T01:09:18.024Z,0.00
2019-02-19T01:10:18.024Z,0.00
2019-02-19T01:11:18.005Z,0.00
2019-02-19T01:12:17.997Z,0.00
2019-02-19T01:13:18.011Z,0.00
2019-02-19T01:14:17.974Z,0.00
2019-02-19T01:15:25.231Z,0.00
2019-02-19T01:16:18.949Z,0.00
2019-02-19T01:17:17.980Z,0.00
2019-02-19T01:18:17.955Z,0.00
2019-02-19T01:19:17.927Z,0.00
2019-02-19T01:20:17.908Z,0.00
2019-02-19T01:21:17.910Z,0.00
2019-02-19T01:22:17.886Z,0.00
2019-02-19T01:23:17.904Z,0.00
2019-02-19T01:24:17.868Z,0.00
2019-02-19T01:25:17.856Z,0.00
2019-02-19T01:26:17.848Z,0.00
2019-02-19T01:27:17.864Z,0.00
2019-02-19T01:28:17.824Z,0.00
2019-02-19T01:29:17.849Z,0.00
2019-02-19T01:30:17.807Z,0.00
2019-02-19T01:31:17.792Z,0.00
2019-02-19T01:32:17.784Z,0.00
2019-02-19T01:33:17.778Z,0.00
2019-02-19T01:34:17.784Z,0.00
2019-02-19T01:35:17.752Z,0.00
2019-02-19T01:36:17.744Z,0.00
2019-02-19T01:37:17.730Z,0.00
2019-02-19T01:38:17.730Z,0.00
2019-02-19T01:39:17.750Z,0.00
2019-02-19T01:40:17.696Z,0.00
2019-02-19T01:41:17.688Z,0.00
2019-02-19T01:42:17.678Z,0.00
2019-02-19T01:43:17.671Z,0.00
2019-02-19T01:44:17.681Z,0.00
2019-02-19T01:45:17.644Z,0.00
2019-02-19T01:46:17.638Z,0.00
2019-02-19T01:47:17.626Z,0.00
2019-02-19T01:48:17.613Z,0.00
2019-02-19T01:49:17.639Z,0.00
2019-02-19T01:50:17.608Z,0.00
2019-02-19T01:51:17.586Z,0.00
2019-02-19T01:52:17.572Z,0.00
2019-02-19T01:53:17.564Z,0.00
2019-02-19T01:54:17.585Z,0.00
2019-02-19T01:55:17.547Z,0.00
2019-02-19T01:56:17.530Z,0.00
2019-02-19T01:57:17.517Z,0.00
2019-02-19T01:58:17.514Z,0.00
2019-02-19T01:59:17.524Z,0.00
2019-02-19T02:00:17.494Z,0.00
2019-02-19T02:01:17.477Z,0.00
2019-02-19T02:02:17.468Z,0.00
2019-02-19T02:03:17.453Z,0.00
2019-02-19T02:04:17.474Z,0.00
2019-02-19T02:05:17.434Z,0.00
2019-02-19T02:06:17.451Z,0.00
2019-02-19T02:07:17.409Z,0.00
2019-02-19T02:08:17.414Z,0.00
2019-02-19T02:09:17.415Z,0.00
2019-02-19T02:10:17.381Z,0.00
2019-02-19T02:11:17.370Z,0.00
2019-02-19T02:12:17.365Z,0.00
2019-02-19T02:13:17.348Z,0.00
2019-02-19T02:14:17.370Z,0.00
2019-02-19T02:15:17.340Z,0.00
2019-02-19T02:16:17.316Z,0.00
2019-02-19T02:17:17.305Z,0.00
2019-02-19T02:18:17.299Z,0.00
2019-02-19T02:19:17.287Z,0.00
2019-02-19T02:20:17.306Z,0.00
2019-02-19T02:21:17.264Z,0.00
2019-02-19T02:22:17.255Z,0.00
2019-02-19T02:23:17.246Z,0.00
2019-02-19T02:24:17.230Z,0.00
2019-02-19T02:25:17.271Z,0.00
2019-02-19T02:26:17.212Z,0.00
2019-02-19T02:27:17.203Z,0.00
2019-02-19T02:28:17.191Z,0.00
2019-02-19T02:29:17.178Z,0.00
2019-02-19T02:30:17.202Z,0.00
2019-02-19T02:31:17.160Z,0.00
2019-02-19T02:32:17.144Z,0.00
2019-02-19T02:33:17.136Z,0.00
2019-02-19T02:34:17.131Z,0.00
2019-02-19T02:35:17.148Z,0.00
2019-02-19T02:36:17.119Z,0.00
2019-02-19T02:37:17.092Z,0.00
2019-02-19T02:38:17.085Z,0.00
2019-02-19T02:39:17.071Z,0.00
2019-02-19T02:40:17.085Z,0.00
2019-02-19T02:41:17.053Z,0.00
2019-02-19T02:42:17.055Z,0.00
2019-02-19T02:43:17.032Z,0.00
2019-02-19T02:44:17.024Z,0.00
2019-02-19T02:45:17.037Z,0.00
2019-02-19T02:46:16.996Z,0.00
2019-02-19T02:47:16.987Z,0.00
2019-02-19T02:48:16.980Z,0.00
2019-02-19T02:49:16.971Z,0.00
2019-02-19T02:50:17.028Z,0.00
2019-02-19T02:51:16.945Z,0.00
2019-02-19T02:52:16.936Z,0.00
2019-02-19T02:53:16.927Z,0.00
2019-02-19T02:54:16.917Z,0.00
2019-02-19T02:55:16.934Z,0.00
2019-02-19T02:56:16.888Z,0.00
2019-02-19T02:57:16.880Z,0.00
2019-02-19T02:58:16.867Z,0.00
2019-02-19T02:59:16.869Z,0.00
2019-02-19T03:00:16.876Z,0.00
2019-02-19T03:01:16.845Z,0.00
2019-02-19T03:02:16.826Z,0.00
2019-02-19T03:03:16.817Z,0.00
2019-02-19T03:04:16.859Z,0.00
2019-02-19T03:06:25.743Z,0.00
2019-02-19T03:07:25.713Z,0.00
2019-02-19T03:08:25.692Z,0.00
2019-02-19T03:09:25.697Z,0.00
2019-02-19T03:10:25.702Z,0.00
2019-02-19T03:11:25.665Z,0.00
2019-02-19T03:12:25.656Z,0.00
2019-02-19T03:13:25.642Z,0.00
2019-02-19T03:14:25.631Z,0.00
2019-02-19T03:15:25.650Z,0.00
2019-02-19T03:16:25.618Z,0.00
2019-02-19T03:17:25.601Z,0.00
2019-02-19T03:18:25.593Z,0.00
2019-02-19T03:19:25.580Z,0.00
2019-02-19T03:20:25.615Z,0.00
2019-02-19T03:21:25.561Z,0.00
2019-02-19T03:22:25.550Z,0.00
2019-02-19T03:23:25.539Z,0.00
2019-02-19T03:24:25.525Z,0.00
2019-02-19T03:25:25.542Z,0.00
2019-02-19T03:26:25.508Z,0.00
2019-02-19T03:27:25.494Z,0.00
2019-02-19T03:28:25.491Z,0.00
2019-02-19T03:29:25.472Z,0.00
2019-02-19T03:30:25.501Z,0.00
2019-02-19T03:31:25.495Z,0.00
2019-02-19T03:32:25.473Z,0.00
2019-02-19T03:33:25.442Z,0.00
2019-02-19T03:34:25.421Z,0.00
2019-02-19T03:35:25.487Z,0.00
2019-02-19T03:36:25.403Z,0.00
2019-02-19T03:37:25.396Z,0.00
2019-02-19T03:38:25.378Z,0.00
2019-02-19T03:39:25.382Z,0.00
2019-02-19T03:40:25.390Z,0.00
2019-02-19T03:41:25.375Z,0.00
2019-02-19T03:42:25.343Z,0.00
2019-02-19T03:43:25.332Z,0.00
2019-02-19T03:44:25.316Z,0.00
2019-02-19T03:45:25.328Z,0.00
2019-02-19T03:46:25.293Z,0.00
2019-02-19T03:47:25.286Z,0.00
2019-02-19T03:48:25.290Z,0.00
2019-02-19T03:49:25.260Z,0.00
2019-02-19T03:50:25.284Z,0.00
2019-02-19T03:51:25.250Z,0.00
2019-02-19T03:52:25.270Z,0.00
2019-02-19T03:53:25.220Z,0.00
2019-02-19T03:54:25.227Z,0.00
2019-02-19T03:55:25.223Z,0.00
2019-02-19T03:56:25.190Z,0.00
2019-02-19T03:57:25.185Z,0.00
2019-02-19T03:58:25.165Z,0.00
2019-02-19T03:59:25.198Z,0.00
2019-02-19T04:00:25.177Z,0.00
2019-02-19T04:01:25.134Z,0.00
2019-02-19T04:02:25.130Z,0.00
2019-02-19T04:03:25.129Z,0.00
2019-02-19T04:04:25.105Z,0.00
2019-02-19T04:05:25.102Z,0.00
2019-02-19T04:06:25.115Z,0.00
2019-02-19T04:07:25.080Z,0.00
2019-02-19T04:08:25.062Z,0.00
2019-02-19T04:09:25.058Z,0.00
2019-02-19T04:10:25.043Z,0.00
2019-02-19T04:11:25.052Z,0.00
2019-02-19T04:12:25.026Z,0.00
2019-02-19T04:13:25.018Z,0.00
2019-02-19T04:14:25.007Z,0.00
2019-02-19T04:15:24.989Z,0.00
2019-02-19T04:16:25.011Z,0.00
2019-02-19T04:17:24.982Z,0.00
2019-02-19T04:18:24.972Z,0.00
2019-02-19T04:19:24.982Z,0.00
2019-02-19T04:20:24.950Z,0.00
2019-02-19T04:21:24.969Z,0.00
2019-02-19T04:22:24.927Z,0.00
2019-02-19T04:23:24.914Z,0.00
2019-02-19T04:24:24.898Z,0.00
2019-02-19T04:25:24.889Z,0.00
2019-02-19T04:26:24.899Z,0.00
2019-02-19T04:27:24.867Z,0.00
2019-02-19T04:28:24.854Z,0.00
2019-02-19T04:29:24.847Z,0.00
2019-02-19T04:30:24.834Z,0.00
2019-02-19T04:31:24.866Z,0.00
2019-02-19T04:32:24.803Z,0.00
2019-02-19T04:33:24.846Z,0.00
2019-02-19T04:34:24.795Z,0.00
2019-02-19T04:35:24.789Z,0.00
2019-02-19T04:36:24.823Z,0.00
2019-02-19T04:37:24.775Z,0.00
2019-02-19T04:38:24.761Z,0.00
2019-02-19T04:39:24.760Z,0.00
2019-02-19T04:40:24.741Z,0.00
2019-02-19T04:41:24.749Z,0.00
2019-02-19T04:42:24.712Z,0.00
2019-02-19T04:43:24.704Z,0.00
2019-02-19T04:44:24.709Z,0.00
2019-02-19T04:45:24.684Z,0.00
2019-02-19T04:46:31.635Z,0.00
2019-02-19T04:47:25.659Z,0.00
2019-02-19T04:48:24.644Z,0.00
2019-02-19T04:49:24.639Z,0.00
2019-02-19T04:50:24.620Z,0.00
2019-02-19T04:51:24.645Z,0.00
2019-02-19T04:52:24.604Z,0.00
2019-02-19T04:53:24.592Z,0.00
2019-02-19T04:54:24.594Z,0.00
2019-02-19T04:55:24.577Z,0.00
2019-02-19T04:56:24.589Z,0.00
2019-02-19T04:57:24.544Z,0.00
2019-02-19T04:58:24.538Z,0.00
2019-02-19T04:59:24.530Z,0.00
2019-02-19T05:00:24.516Z,0.00
2019-02-19T05:01:24.522Z,0.00
2019-02-19T05:02:24.477Z,0.00
2019-02-19T05:03:24.488Z,0.00
2019-02-19T05:04:24.467Z,0.00
2019-02-19T05:05:24.455Z,0.00
2019-02-19T05:06:24.472Z,0.00
2019-02-19T05:07:24.440Z,0.00
2019-02-19T05:08:24.424Z,0.00
2019-02-19T05:09:24.415Z,0.00
2019-02-19T05:10:24.400Z,0.00
2019-02-19T05:11:24.421Z,0.00
2019-02-19T05:12:24.399Z,0.00
2019-02-19T05:13:24.374Z,0.00
2019-02-19T05:14:24.362Z,0.00
2019-02-19T05:15:24.355Z,0.00
2019-02-19T05:16:24.371Z,0.00
2019-02-19T05:17:24.328Z,0.00
2019-02-19T05:18:24.334Z,0.00
2019-02-19T05:19:24.309Z,0.00
2019-02-19T05:20:24.302Z,0.00
2019-02-19T05:21:24.311Z,0.00
2019-02-19T05:22:24.278Z,0.00
2019-02-19T05:23:24.271Z,0.00
2019-02-19T05:24:24.279Z,0.00
2019-02-19T05:25:24.247Z,0.00
2019-02-19T05:26:24.276Z,0.00
2019-02-19T05:27:24.228Z,0.00
2019-02-19T05:28:24.211Z,0.00
2019-02-19T05:29:24.209Z,0.00
2019-02-19T05:30:24.216Z,0.00
2019-02-19T05:31:24.212Z,0.00
2019-02-19T05:32:24.175Z,0.00
2019-02-19T05:33:24.167Z,0.00
2019-02-19T05:34:24.152Z,0.00
2019-02-19T05:35:24.140Z,0.00
2019-02-19T05:36:24.156Z,0.00
2019-02-19T05:37:24.117Z,0.00
2019-02-19T05:38:24.108Z,0.00
2019-02-19T05:39:24.099Z,0.00
2019-02-19T05:40:24.088Z,0.00
2019-02-19T05:41:24.108Z,0.00
2019-02-19T05:42:24.067Z,0.00
2019-02-19T05:43:24.056Z,0.00
2019-02-19T05:44:24.048Z,0.00
2019-02-19T05:45:24.041Z,0.00
2019-02-19T05:46:24.078Z,0.00
2019-02-19T05:47:24.019Z,0.00
2019-02-19T05:48:24.003Z,0.00
2019-02-19T05:49:23.990Z,0.00
2019-02-19T05:50:23.984Z,0.00
2019-02-19T05:51:23.971Z,0.00
2019-02-19T05:52:24.001Z,0.00
2019-02-19T05:53:23.953Z,0.00
2019-02-19T05:54:23.958Z,0.00
2019-02-19T05:55:23.928Z,0.00
2019-02-19T05:56:23.916Z,0.00
2019-02-19T05:57:23.933Z,0.00
2019-02-19T05:58:23.900Z,0.00
2019-02-19T05:59:23.891Z,0.00
2019-02-19T06:00:23.875Z,0.00
2019-02-19T06:01:23.869Z,0.00
2019-02-19T06:02:23.879Z,0.00
2019-02-19T06:03:23.842Z,0.00
2019-02-19T06:04:23.836Z,0.00
2019-02-19T06:05:23.835Z,0.00
2019-02-19T06:06:23.816Z,0.00
2019-02-19T06:07:23.834Z,0.00
2019-02-19T06:08:23.797Z,0.00
2019-02-19T06:09:23.797Z,0.00
2019-02-19T06:10:23.780Z,0.00
2019-02-19T06:11:23.767Z,0.00
2019-02-19T06:12:23.798Z,0.00
2019-02-19T06:13:23.745Z,0.00
2019-02-19T06:14:23.742Z,0.00
2019-02-19T06:15:23.720Z,0.00
2019-02-19T06:16:23.713Z,0.00
2019-02-19T06:17:23.726Z,0.00
2019-02-19T06:18:23.691Z,0.00
2019-02-19T06:19:23.687Z,0.00
2019-02-19T06:20:23.673Z,0.00
2019-02-19T06:21:23.658Z,0.00
2019-02-19T06:22:23.673Z,0.00
2019-02-19T06:23:23.707Z,0.00
2019-02-19T06:24:23.739Z,0.00
2019-02-19T06:25:23.626Z,0.00
2019-02-19T06:26:23.614Z,0.00
2019-02-19T06:27:23.626Z,0.00
2019-02-19T06:28:23.595Z,0.00
2019-02-19T06:29:23.580Z,0.00
2019-02-19T06:30:23.563Z,0.00
2019-02-19T06:31:23.556Z,5.62
2019-02-19T06:32:23.580Z,5.62
2019-02-19T06:33:23.538Z,5.62
2019-02-19T06:34:23.531Z,5.62
2019-02-19T06:35:23.528Z,5.62
2019-02-19T06:36:23.515Z,5.62
2019-02-19T06:37:23.513Z,5.62
2019-02-19T06:38:23.491Z,5.62
2019-02-19T06:39:23.481Z,11.25
2019-02-19T06:40:23.465Z,11.25
2019-02-19T06:41:23.464Z,11.25
2019-02-19T06:42:23.458Z,11.25
2019-02-19T06:43:23.420Z,11.25
2019-02-19T06:44:23.412Z,11.25
2019-02-19T06:45:23.407Z,11.25
2019-02-19T06:46:23.384Z,11.25
2019-02-19T06:47:23.400Z,11.25
2019-02-19T06:48:23.380Z,16.88
2019-02-19T06:49:23.357Z,22.50
2019-02-19T06:50:23.351Z,22.50
2019-02-19T06:51:23.347Z,28.12
2019-02-19T06:52:23.358Z,28.12
2019-02-19T06:53:23.322Z,33.75
2019-02-19T06:54:23.310Z,33.75
2019-02-19T06:55:23.302Z,33.75
2019-02-19T06:56:23.291Z,33.75
2019-02-19T06:57:23.311Z,22.50
2019-02-19T06:58:23.270Z,22.50
2019-02-19T06:59:23.253Z,22.50
2019-02-19T07:00:23.242Z,22.50
2019-02-19T07:01:23.238Z,22.50
2019-02-19T07:02:23.244Z,16.88
2019-02-19T07:03:23.215Z,22.50
2019-02-19T07:04:23.195Z,22.50
2019-02-19T07:05:23.183Z,22.50
2019-02-19T07:06:23.175Z,28.12
2019-02-19T07:07:23.191Z,33.75
2019-02-19T07:08:23.156Z,39.38
2019-02-19T07:09:23.148Z,50.62
2019-02-19T07:10:23.139Z,50.62
2019-02-19T07:11:23.127Z,50.62
2019-02-19T07:12:23.148Z,56.25
2019-02-19T07:13:23.107Z,67.50
2019-02-19T07:14:23.107Z,78.75
2019-02-19T07:15:23.096Z,78.75
2019-02-19T07:16:23.081Z,95.62
2019-02-19T07:17:23.103Z,101.25
2019-02-19T07:18:23.058Z,101.25
2019-02-19T07:19:23.049Z,112.50
2019-02-19T07:20:23.046Z,123.75
2019-02-19T07:21:23.040Z,123.75
2019-02-19T07:22:23.052Z,123.75
2019-02-19T07:23:23.019Z,112.50
2019-02-19T07:24:23.002Z,101.25
2019-02-19T07:25:22.986Z,95.62
2019-02-19T07:26:22.987Z,84.38
2019-02-19T07:27:23.114Z,73.12
2019-02-19T07:28:22.995Z,67.50
2019-02-19T07:29:22.931Z,73.12
2019-02-19T07:30:22.932Z,61.88
2019-02-19T07:31:22.922Z,73.12
2019-02-19T07:32:22.906Z,78.75
2019-02-19T07:33:22.923Z,84.38
2019-02-19T07:34:22.882Z,78.75
2019-02-19T07:35:22.910Z,90.00
2019-02-19T07:36:22.868Z,95.62
2019-02-19T07:37:22.854Z,90.00
2019-02-19T07:38:22.869Z,101.25
2019-02-19T07:39:22.828Z,129.38
2019-02-19T07:40:22.823Z,146.25
2019-02-19T07:41:22.810Z,146.25
2019-02-19T07:42:22.835Z,140.62
2019-02-19T07:43:22.818Z,135.00
2019-02-19T07:44:22.777Z,129.38
2019-02-19T07:45:22.761Z,146.25
2019-02-19T07:46:22.764Z,174.38
2019-02-19T07:47:24.575Z,163.12
2019-02-19T07:48:22.764Z,180.00
2019-02-19T07:49:23.210Z,196.88
2019-02-19T07:50:22.723Z,196.88
2019-02-19T07:51:22.719Z,196.88
2019-02-19T07:52:22.688Z,202.50
2019-02-19T07:53:22.705Z,241.88
2019-02-19T07:54:22.672Z,236.25
2019-02-19T07:55:22.663Z,191.25
2019-02-19T07:56:22.644Z,174.38
2019-02-19T07:57:22.636Z,202.50
2019-02-19T07:58:22.653Z,191.25
2019-02-19T07:59:23.224Z,196.88
2019-02-19T08:00:22.606Z,196.88
2019-02-19T08:01:22.592Z,236.25
2019-02-19T08:02:22.582Z,219.38
2019-02-19T08:03:22.612Z,196.88
2019-02-19T08:04:22.561Z,219.38
2019-02-19T08:05:22.556Z,225.00
2019-02-19T08:06:22.549Z,213.75
2019-02-19T08:07:22.536Z,241.88
2019-02-19T08:08:22.555Z,230.62
2019-02-19T08:09:22.516Z,230.62
2019-02-19T08:10:22.500Z,253.12
2019-02-19T08:11:22.499Z,258.75
2019-02-19T08:12:22.493Z,253.12
2019-02-19T08:13:22.510Z,253.12
2019-02-19T08:14:22.469Z,236.25
2019-02-19T08:15:22.498Z,213.75
2019-02-19T08:16:22.443Z,213.75
2019-02-19T08:17:22.427Z,230.62
2019-02-19T08:18:22.445Z,219.38
2019-02-19T08:19:22.400Z,219.38
2019-02-19T08:20:22.390Z,202.50
2019-02-19T08:21:22.389Z,219.38
2019-02-19T08:22:22.375Z,258.75
2019-02-19T08:23:22.392Z,253.12
2019-02-19T08:24:22.357Z,236.25
2019-02-19T08:25:22.337Z,230.62
2019-02-19T08:26:22.326Z,230.62
2019-02-19T08:27:22.319Z,213.75
2019-02-19T08:28:22.341Z,208.12
2019-02-19T08:29:22.298Z,225.00
2019-02-19T08:30:22.283Z,213.75
2019-02-19T08:31:22.273Z,202.50
2019-02-19T08:32:22.268Z,225.00
2019-02-19T08:33:22.285Z,247.50
2019-02-19T08:34:22.242Z,247.50
2019-02-19T08:35:22.244Z,247.50
2019-02-19T08:36:22.218Z,253.12
2019-02-19T08:37:22.211Z,303.75
2019-02-19T08:38:22.226Z,298.12
2019-02-19T08:39:22.188Z,298.12
2019-02-19T08:40:22.180Z,315.00
2019-02-19T08:41:22.178Z,343.12
2019-02-19T08:42:22.164Z,360.00
2019-02-19T08:43:22.177Z,343.12
2019-02-19T08:44:22.137Z,376.88
2019-02-19T08:45:22.123Z,354.38
2019-02-19T08:46:22.129Z,343.12
2019-02-19T08:47:22.110Z,360.00
2019-02-19T08:48:22.126Z,371.25
2019-02-19T08:49:22.080Z,376.88
2019-02-19T08:50:22.071Z,348.75
2019-02-19T08:51:22.060Z,337.50
2019-02-19T08:52:22.054Z,309.38
2019-02-19T08:53:22.063Z,371.25
2019-02-19T08:54:22.069Z,343.12
2019-02-19T08:55:22.022Z,320.62
2019-02-19T08:56:22.005Z,303.75
2019-02-19T08:57:21.993Z,264.38
2019-02-19T08:58:22.014Z,270.00
2019-02-19T08:59:21.976Z,315.00
2019-02-19T09:00:21.967Z,292.50
2019-02-19T09:01:21.953Z,303.75
2019-02-19T09:02:21.944Z,298.12
2019-02-19T09:03:21.958Z,292.50
2019-02-19T09:04:21.924Z,264.38
2019-02-19T09:05:21.915Z,258.75
2019-02-19T09:06:21.921Z,275.62
2019-02-19T09:07:21.886Z,309.38
2019-02-19T09:08:21.905Z,382.50
2019-02-19T09:09:21.875Z,506.25
2019-02-19T09:10:21.901Z,405.00
2019-02-19T09:11:21.863Z,478.12
2019-02-19T09:12:21.854Z,444.38
2019-02-19T09:13:21.826Z,759.38
2019-02-19T09:14:21.861Z,663.75
2019-02-19T09:15:21.810Z,675.00
2019-02-19T09:16:21.798Z,511.88
2019-02-19T09:17:21.785Z,680.62
2019-02-19T09:18:21.779Z,1012.50
2019-02-19T09:19:21.794Z,832.50
2019-02-19T09:20:21.763Z,945.00
2019-02-19T09:21:21.753Z,624.38
2019-02-19T09:22:21.729Z,658.12
2019-02-19T09:23:21.722Z,568.12
2019-02-19T09:24:21.752Z,832.50
2019-02-19T09:25:21.708Z,916.88
2019-02-19T09:26:21.685Z,961.88
2019-02-19T09:27:21.682Z,928.12
2019-02-19T09:28:21.669Z,1040.62
2019-02-19T09:29:21.682Z,1085.62
2019-02-19T09:30:21.647Z,1170.00
2019-02-19T09:31:21.635Z,967.50
2019-02-19T09:32:21.621Z,1046.25
2019-02-19T09:33:21.668Z,871.88
2019-02-19T09:34:21.634Z,860.62
2019-02-19T09:35:21.601Z,939.38
2019-02-19T09:36:21.586Z,438.75
2019-02-19T09:37:21.572Z,540.00
2019-02-19T09:38:21.562Z,562.50
2019-02-19T09:39:21.569Z,742.50
2019-02-19T09:40:21.542Z,1012.50
2019-02-19T09:41:21.525Z,607.50
2019-02-19T09:42:21.515Z,697.50
2019-02-19T09:43:21.509Z,675.00
2019-02-19T09:44:21.523Z,669.38
2019-02-19T09:45:21.482Z,562.50
2019-02-19T09:46:21.472Z,540.00
2019-02-19T09:47:21.466Z,641.25
2019-02-19T09:48:21.453Z,579.38
2019-02-19T09:49:21.464Z,427.50
2019-02-19T09:50:21.433Z,523.12
2019-02-19T09:51:21.428Z,596.25
2019-02-19T09:52:21.409Z,579.38
2019-02-19T09:53:21.401Z,478.12
2019-02-19T09:54:21.417Z,517.50
2019-02-19T09:55:21.390Z,528.75
2019-02-19T09:56:21.374Z,652.50
2019-02-19T09:57:21.357Z,691.88
2019-02-19T09:58:21.348Z,810.00
2019-02-19T09:59:21.362Z,781.88
2019-02-19T10:00:21.332Z,714.38
2019-02-19T10:01:21.316Z,618.75
2019-02-19T10:02:21.323Z,658.12
2019-02-19T10:03:21.294Z,765.00
2019-02-19T10:04:21.321Z,691.88
2019-02-19T10:05:21.278Z,613.12
2019-02-19T10:06:21.263Z,489.38
2019-02-19T10:07:21.254Z,495.00
2019-02-19T10:08:21.251Z,545.62
2019-02-19T10:09:21.261Z,742.50
2019-02-19T10:10:21.224Z,888.75
2019-02-19T10:11:21.212Z,804.38
2019-02-19T10:12:21.206Z,731.25
2019-02-19T10:13:21.201Z,810.00
2019-02-19T10:14:21.204Z,871.88
2019-02-19T10:15:21.172Z,883.12
2019-02-19T10:16:21.177Z,748.12
2019-02-19T10:17:21.147Z,585.00
2019-02-19T10:18:21.144Z,506.25
2019-02-19T10:19:21.160Z,523.12
2019-02-19T10:20:21.114Z,556.88
2019-02-19T10:21:21.103Z,528.75
2019-02-19T10:22:21.125Z,613.12
2019-02-19T10:23:21.087Z,736.88
2019-02-19T10:24:21.141Z,618.75
2019-02-19T10:25:21.072Z,500.62
2019-02-19T10:26:21.071Z,478.12
2019-02-19T10:27:21.116Z,461.25
2019-02-19T10:28:21.038Z,455.62
2019-02-19T10:29:21.046Z,523.12
2019-02-19T10:30:21.018Z,652.50
2019-02-19T10:31:21.010Z,641.25
2019-02-19T10:32:20.996Z,630.00
2019-02-19T10:33:20.989Z,753.75
2019-02-19T10:34:20.996Z,663.75
2019-02-19T10:35:20.966Z,646.88
2019-02-19T10:36:20.955Z,675.00
2019-02-19T10:37:20.947Z,675.00
2019-02-19T10:38:20.930Z,787.50
2019-02-19T10:39:20.993Z,635.62
2019-02-19T10:40:20.915Z,793.12
2019-02-19T10:41:20.906Z,832.50
2019-02-19T10:42:20.944Z,984.38
2019-02-19T10:43:20.884Z,961.88
2019-02-19T10:44:20.896Z,933.75
2019-02-19T10:45:20.852Z,815.62
2019-02-19T10:46:20.858Z,798.75
2019-02-19T10:47:20.841Z,534.38
2019-02-19T10:48:20.832Z,523.12
2019-02-19T10:49:20.842Z,472.50
2019-02-19T10:50:20.808Z,472.50
2019-02-19T10:51:20.794Z,444.38
2019-02-19T10:52:20.789Z,360.00
2019-02-19T10:53:20.773Z,337.50
2019-02-19T10:54:20.800Z,354.38
2019-02-19T10:55:20.755Z,466.88
2019-02-19T10:56:20.744Z,461.25
2019-02-19T10:57:20.735Z,489.38
2019-02-19T10:58:23.144Z,517.50
2019-02-19T10:59:20.707Z,630.00
2019-02-19T11:00:20.772Z,781.88
2019-02-19T11:01:20.697Z,888.75
2019-02-19T11:02:20.673Z,838.12
2019-02-19T11:03:20.663Z,691.88
2019-02-19T11:04:20.662Z,770.62
2019-02-19T11:05:20.680Z,826.88
2019-02-19T11:06:20.650Z,714.38
2019-02-19T11:07:20.629Z,663.75
2019-02-19T11:08:20.617Z,686.25
2019-02-19T11:09:20.611Z,742.50
2019-02-19T11:10:20.629Z,613.12
2019-02-19T11:11:20.592Z,686.25
2019-02-19T11:12:20.581Z,821.25
2019-02-19T11:13:20.566Z,708.75
2019-02-19T11:14:20.553Z,585.00
2019-02-19T11:15:20.568Z,646.88
2019-02-19T11:16:20.537Z,680.62
2019-02-19T11:17:20.530Z,652.50
2019-02-19T11:18:28.164Z,545.62
2019-02-19T11:19:21.495Z,511.88
2019-02-19T11:20:20.516Z,545.62
2019-02-19T11:21:20.483Z,528.75
2019-02-19T11:22:20.466Z,540.00
2019-02-19T11:23:20.474Z,545.62
2019-02-19T11:24:20.449Z,500.62
2019-02-19T11:25:20.503Z,466.88
2019-02-19T11:26:20.436Z,489.38
2019-02-19T11:27:20.435Z,500.62
2019-02-19T11:28:20.414Z,489.38
2019-02-19T11:29:20.387Z,596.25
2019-02-19T11:30:20.700Z,680.62
2019-02-19T11:31:20.371Z,630.00
2019-02-19T11:32:20.369Z,663.75
2019-02-19T11:33:20.354Z,663.75
2019-02-19T11:34:20.339Z,528.75
2019-02-19T11:35:20.363Z,495.00
2019-02-19T11:36:20.317Z,483.75
2019-02-19T11:37:20.314Z,483.75
2019-02-19T11:38:20.294Z,523.12
2019-02-19T11:39:20.312Z,506.25
2019-02-19T11:40:20.307Z,579.38
2019-02-19T11:41:20.273Z,697.50
2019-02-19T11:42:20.255Z,793.12
2019-02-19T11:43:20.235Z,832.50
2019-02-19T11:44:20.222Z,855.00
2019-02-19T11:45:20.239Z,787.50
2019-02-19T11:46:20.208Z,849.38
2019-02-19T11:47:26.419Z,933.75
2019-02-19T11:48:21.178Z,990.00
2019-02-19T11:49:20.175Z,1046.25
2019-02-19T11:50:20.193Z,1006.88
2019-02-19T11:51:20.158Z,838.12
2019-02-19T11:52:20.144Z,703.12
2019-02-19T11:53:20.129Z,658.12
2019-02-19T11:54:21.859Z,579.38
2019-02-19T11:55:20.138Z,568.12
2019-02-19T11:56:20.098Z,579.38
2019-02-19T11:57:20.090Z,556.88
2019-02-19T11:58:20.080Z,585.00
2019-02-19T11:59:20.064Z,613.12
2019-02-19T12:00:20.085Z,596.25
2019-02-19T12:01:20.043Z,562.50
2019-02-19T12:02:20.037Z,624.38
2019-02-19T12:03:20.025Z,613.12
2019-02-19T12:04:20.023Z,686.25
2019-02-19T12:05:20.039Z,781.88
2019-02-19T12:06:19.989Z,815.62
2019-02-19T12:07:19.977Z,815.62
2019-02-19T12:08:19.971Z,765.00
2019-02-19T12:09:19.961Z,708.75
2019-02-19T12:10:19.974Z,720.00
2019-02-19T12:11:19.936Z,787.50
2019-02-19T12:12:19.927Z,765.00
2019-02-19T12:13:19.914Z,691.88
2019-02-19T12:14:19.910Z,624.38
2019-02-19T12:15:19.918Z,630.00
2019-02-19T12:16:19.886Z,675.00
2019-02-19T12:17:19.873Z,720.00
2019-02-19T12:18:19.866Z,770.62
2019-02-19T12:19:19.851Z,793.12
2019-02-19T12:20:19.865Z,765.00
2019-02-19T12:21:19.840Z,714.38
2019-02-19T12:22:19.818Z,787.50
2019-02-19T12:23:19.809Z,849.38
2019-02-19T12:24:19.801Z,843.75
2019-02-19T12:25:19.809Z,838.12
2019-02-19T12:26:19.784Z,826.88
2019-02-19T12:27:19.801Z,787.50
2019-02-19T12:28:19.753Z,776.25
2019-02-19T12:29:19.740Z,607.50
2019-02-19T12:30:19.757Z,663.75
2019-02-19T12:31:19.726Z,686.25
2019-02-19T12:32:19.717Z,691.88
2019-02-19T12:33:19.709Z,680.62
2019-02-19T12:34:19.696Z,776.25
2019-02-19T12:35:19.732Z,810.00
2019-02-19T12:36:19.673Z,866.25
2019-02-19T12:37:21.325Z,855.00
2019-02-19T12:38:19.660Z,883.12
2019-02-19T12:39:19.803Z,826.88
2019-02-19T12:40:19.635Z,770.62
2019-02-19T12:41:19.648Z,697.50
2019-02-19T12:42:19.606Z,630.00
2019-02-19T12:43:19.599Z,568.12
2019-02-19T12:44:19.597Z,433.12
2019-02-19T12:45:19.574Z,315.00
2019-02-19T12:46:19.596Z,286.88
2019-02-19T12:47:19.558Z,354.38
2019-02-19T12:48:19.546Z,506.25
2019-02-19T12:49:19.536Z,534.38
2019-02-19T12:50:19.529Z,478.12
2019-02-19T12:51:26.228Z,478.12
2019-02-19T12:52:20.497Z,472.50
2019-02-19T12:53:19.490Z,444.38
2019-02-19T12:54:19.479Z,382.50
2019-02-19T12:55:19.469Z,421.88